RUG weather

Public forecast

Using degrees Fahrenheit for public forecast. Weather courtesy of forecast.io.

Current aviation weather report (METAR) for Rugby Municipal Airport

Retrieved 2020/08/11 18:35 UTC (23 minutes ago):

KRUG 111835Z AUTO 20004KT 10SM CLR 25/10 A2990 RMK AO2

Closest aviation forecast (TAF) to Rugby Municipal Airport

Closest forecast is Devils Lake Regional Airport, 47.6 nm (88.1 km) ESE. Retrieved 2020/08/11 18:22 UTC (36 minutes ago):

TAF KDVL 111720Z 1118/1218 00000KT P6SM SKC FM120500 14008KT P6SM FEW250